sensor_id;sensor_type;location;lat;lon;timestamp;P1;durP1;ratioP1;P2;durP2;ratioP2
52982;SDS011;48698;45.736;13.926;2024-02-04T00:01:45;17.10;;;11.35;;
52982;SDS011;48698;45.736;13.926;2024-02-04T00:06:48;19.83;;;11.05;;
52982;SDS011;48698;45.736;13.926;2024-02-04T00:12:01;16.60;;;10.00;;
52982;SDS011;48698;45.736;13.926;2024-02-04T00:17:06;14.20;;;8.32;;
52982;SDS011;48698;45.736;13.926;2024-02-04T00:22:10;15.80;;;10.02;;
52982;SDS011;48698;45.736;13.926;2024-02-04T00:27:13;16.83;;;10.25;;
52982;SDS011;48698;45.736;13.926;2024-02-04T00:32:18;9.07;;;5.63;;
52982;SDS011;48698;45.736;13.926;2024-02-04T00:37:21;12.48;;;7.45;;
52982;SDS011;48698;45.736;13.926;2024-02-04T00:42:25;15.35;;;9.68;;
52982;SDS011;48698;45.736;13.926;2024-02-04T00:47:32;15.00;;;8.57;;
52982;SDS011;48698;45.736;13.926;2024-02-04T00:52:38;18.40;;;10.57;;
52982;SDS011;48698;45.736;13.926;2024-02-04T00:57:41;15.40;;;9.75;;
52982;SDS011;48698;45.736;13.926;2024-02-04T01:02:45;14.27;;;8.43;;
52982;SDS011;48698;45.736;13.926;2024-02-04T01:07:49;19.77;;;9.00;;
52982;SDS011;48698;45.736;13.926;2024-02-04T01:12:52;12.63;;;6.75;;
52982;SDS011;48698;45.736;13.926;2024-02-04T01:17:56;11.15;;;6.63;;
52982;SDS011;48698;45.736;13.926;2024-02-04T01:22:59;13.43;;;6.32;;
52982;SDS011;48698;45.736;13.926;2024-02-04T01:28:03;14.60;;;7.53;;
52982;SDS011;48698;45.736;13.926;2024-02-04T01:33:07;14.13;;;8.00;;
52982;SDS011;48698;45.736;13.926;2024-02-04T01:38:11;17.90;;;9.82;;
52982;SDS011;48698;45.736;13.926;2024-02-04T01:43:14;15.55;;;6.00;;
52982;SDS011;48698;45.736;13.926;2024-02-04T01:48:19;22.77;;;11.43;;
52982;SDS011;48698;45.736;13.926;2024-02-04T01:53:25;11.77;;;7.15;;
52982;SDS011;48698;45.736;13.926;2024-02-04T01:58:30;14.90;;;8.85;;
52982;SDS011;48698;45.736;13.926;2024-02-04T02:03:33;12.00;;;7.78;;
52982;SDS011;48698;45.736;13.926;2024-02-04T02:08:40;34.22;;;14.02;;
52982;SDS011;48698;45.736;13.926;2024-02-04T02:13:44;16.58;;;7.82;;
52982;SDS011;48698;45.736;13.926;2024-02-04T02:24:43;22.40;;;10.88;;
52982;SDS011;48698;45.736;13.926;2024-02-04T02:29:50;12.85;;;6.30;;
52982;SDS011;48698;45.736;13.926;2024-02-04T02:34:53;13.27;;;7.57;;
52982;SDS011;48698;45.736;13.926;2024-02-04T02:45:26;17.75;;;8.55;;
52982;SDS011;48698;45.736;13.926;2024-02-04T02:50:30;38.55;;;18.83;;
52982;SDS011;48698;45.736;13.926;2024-02-04T02:55:33;27.63;;;15.40;;
52982;SDS011;48698;45.736;13.926;2024-02-04T03:00:37;17.60;;;8.70;;
52982;SDS011;48698;45.736;13.926;2024-02-04T03:05:41;12.68;;;6.47;;
52982;SDS011;48698;45.736;13.926;2024-02-04T03:10:44;10.07;;;7.15;;
52982;SDS011;48698;45.736;13.926;2024-02-04T03:15:48;13.23;;;6.53;;
52982;SDS011;48698;45.736;13.926;2024-02-04T03:20:52;9.68;;;6.18;;
52982;SDS011;48698;45.736;13.926;2024-02-04T03:25:55;12.82;;;6.35;;
52982;SDS011;48698;45.736;13.926;2024-02-04T03:30:59;17.83;;;7.38;;
52982;SDS011;48698;45.736;13.926;2024-02-04T03:36:02;10.60;;;6.40;;
52982;SDS011;48698;45.736;13.926;2024-02-04T03:41:06;9.18;;;6.10;;
52982;SDS011;48698;45.736;13.926;2024-02-04T03:46:16;23.08;;;11.20;;
52982;SDS011;48698;45.736;13.926;2024-02-04T03:51:20;9.90;;;5.40;;
52982;SDS011;48698;45.736;13.926;2024-02-04T03:56:24;25.73;;;11.35;;
52982;SDS011;48698;45.736;13.926;2024-02-04T04:01:27;13.10;;;5.80;;
52982;SDS011;48698;45.736;13.926;2024-02-04T04:06:31;9.32;;;5.47;;
52982;SDS011;48698;45.736;13.926;2024-02-04T04:11:34;35.08;;;15.50;;
52982;SDS011;48698;45.736;13.926;2024-02-04T04:16:38;9.80;;;6.57;;
52982;SDS011;48698;45.736;13.926;2024-02-04T04:21:41;11.15;;;5.68;;
52982;SDS011;48698;45.736;13.926;2024-02-04T04:26:45;34.10;;;16.58;;
52982;SDS011;48698;45.736;13.926;2024-02-04T04:31:48;9.40;;;6.30;;
52982;SDS011;48698;45.736;13.926;2024-02-04T04:36:51;9.85;;;5.90;;
52982;SDS011;48698;45.736;13.926;2024-02-04T04:41:54;10.85;;;5.47;;
52982;SDS011;48698;45.736;13.926;2024-02-04T04:46:57;11.57;;;5.35;;
52982;SDS011;48698;45.736;13.926;2024-02-04T04:51:59;9.05;;;5.60;;
52982;SDS011;48698;45.736;13.926;2024-02-04T04:57:02;8.32;;;5.38;;
52982;SDS011;48698;45.736;13.926;2024-02-04T05:02:05;8.73;;;5.65;;
52982;SDS011;48698;45.736;13.926;2024-02-04T05:07:08;8.55;;;4.78;;
52982;SDS011;48698;45.736;13.926;2024-02-04T05:12:11;9.38;;;6.32;;
52982;SDS011;48698;45.736;13.926;2024-02-04T05:17:14;13.38;;;7.50;;
52982;SDS011;48698;45.736;13.926;2024-02-04T05:22:17;12.30;;;5.93;;
52982;SDS011;48698;45.736;13.926;2024-02-04T05:27:20;10.48;;;6.30;;
52982;SDS011;48698;45.736;13.926;2024-02-04T05:32:22;9.07;;;5.78;;
52982;SDS011;48698;45.736;13.926;2024-02-04T05:37:25;9.63;;;6.30;;
52982;SDS011;48698;45.736;13.926;2024-02-04T05:42:28;14.90;;;6.93;;
52982;SDS011;48698;45.736;13.926;2024-02-04T05:47:31;10.18;;;6.65;;
52982;SDS011;48698;45.736;13.926;2024-02-04T05:52:35;9.55;;;6.10;;
52982;SDS011;48698;45.736;13.926;2024-02-04T05:57:38;11.68;;;6.82;;
52982;SDS011;48698;45.736;13.926;2024-02-04T06:02:41;15.75;;;7.55;;
52982;SDS011;48698;45.736;13.926;2024-02-04T06:07:47;32.75;;;14.77;;
52982;SDS011;48698;45.736;13.926;2024-02-04T06:12:49;15.65;;;7.95;;
52982;SDS011;48698;45.736;13.926;2024-02-04T06:17:52;13.68;;;7.28;;
52982;SDS011;48698;45.736;13.926;2024-02-04T06:22:55;23.25;;;13.65;;
52982;SDS011;48698;45.736;13.926;2024-02-04T06:28:00;9.13;;;5.63;;
52982;SDS011;48698;45.736;13.926;2024-02-04T06:33:03;11.65;;;7.97;;
52982;SDS011;48698;45.736;13.926;2024-02-04T06:38:06;14.57;;;8.60;;
52982;SDS011;48698;45.736;13.926;2024-02-04T06:43:09;20.75;;;8.68;;
52982;SDS011;48698;45.736;13.926;2024-02-04T06:48:12;15.57;;;9.57;;
52982;SDS011;48698;45.736;13.926;2024-02-04T06:53:15;27.38;;;14.77;;
52982;SDS011;48698;45.736;13.926;2024-02-04T06:58:17;16.15;;;7.40;;
52982;SDS011;48698;45.736;13.926;2024-02-04T07:03:21;28.80;;;18.38;;
52982;SDS011;48698;45.736;13.926;2024-02-04T07:08:24;30.95;;;17.67;;
52982;SDS011;48698;45.736;13.926;2024-02-04T07:13:27;32.58;;;26.08;;
52982;SDS011;48698;45.736;13.926;2024-02-04T07:18:30;20.17;;;13.55;;
52982;SDS011;48698;45.736;13.926;2024-02-04T07:23:39;16.60;;;9.73;;
52982;SDS011;48698;45.736;13.926;2024-02-04T07:28:42;9.25;;;6.55;;
52982;SDS011;48698;45.736;13.926;2024-02-04T07:33:45;11.65;;;8.15;;
52982;SDS011;48698;45.736;13.926;2024-02-04T07:38:47;10.15;;;7.15;;
52982;SDS011;48698;45.736;13.926;2024-02-04T07:43:52;19.15;;;10.73;;
52982;SDS011;48698;45.736;13.926;2024-02-04T07:48:59;15.13;;;9.50;;
52982;SDS011;48698;45.736;13.926;2024-02-04T07:54:02;13.10;;;7.18;;
52982;SDS011;48698;45.736;13.926;2024-02-04T07:59:05;11.95;;;7.60;;
52982;SDS011;48698;45.736;13.926;2024-02-04T08:04:08;10.65;;;7.18;;
52982;SDS011;48698;45.736;13.926;2024-02-04T08:09:13;12.57;;;7.40;;
52982;SDS011;48698;45.736;13.926;2024-02-04T08:14:16;13.55;;;8.32;;
52982;SDS011;48698;45.736;13.926;2024-02-04T08:19:19;17.70;;;11.13;;
52982;SDS011;48698;45.736;13.926;2024-02-04T08:24:22;22.92;;;15.20;;
52982;SDS011;48698;45.736;13.926;2024-02-04T08:29:25;27.27;;;14.65;;
52982;SDS011;48698;45.736;13.926;2024-02-04T08:34:28;19.30;;;13.15;;
52982;SDS011;48698;45.736;13.926;2024-02-04T08:39:31;14.35;;;8.88;;
52982;SDS011;48698;45.736;13.926;2024-02-04T08:44:34;16.80;;;12.07;;
52982;SDS011;48698;45.736;13.926;2024-02-04T08:49:40;19.83;;;12.68;;
52982;SDS011;48698;45.736;13.926;2024-02-04T08:54:43;18.58;;;10.38;;
52982;SDS011;48698;45.736;13.926;2024-02-04T08:59:46;17.77;;;11.27;;
52982;SDS011;48698;45.736;13.926;2024-02-04T09:04:50;19.08;;;10.38;;
52982;SDS011;48698;45.736;13.926;2024-02-04T09:09:52;16.80;;;9.25;;
52982;SDS011;48698;45.736;13.926;2024-02-04T09:14:55;22.67;;;12.63;;
52982;SDS011;48698;45.736;13.926;2024-02-04T09:19:58;14.13;;;9.05;;
52982;SDS011;48698;45.736;13.926;2024-02-04T09:25:03;12.30;;;7.55;;
52982;SDS011;48698;45.736;13.926;2024-02-04T09:30:06;15.02;;;8.45;;
52982;SDS011;48698;45.736;13.926;2024-02-04T09:35:09;12.57;;;6.63;;
52982;SDS011;48698;45.736;13.926;2024-02-04T09:40:12;18.17;;;9.70;;
52982;SDS011;48698;45.736;13.926;2024-02-04T09:45:15;25.08;;;10.80;;
52982;SDS011;48698;45.736;13.926;2024-02-04T09:50:20;26.00;;;10.98;;
52982;SDS011;48698;45.736;13.926;2024-02-04T09:55:24;32.28;;;12.85;;
52982;SDS011;48698;45.736;13.926;2024-02-04T10:00:28;29.08;;;13.45;;
52982;SDS011;48698;45.736;13.926;2024-02-04T10:05:33;23.50;;;11.20;;
52982;SDS011;48698;45.736;13.926;2024-02-04T10:10:35;21.65;;;12.02;;
52982;SDS011;48698;45.736;13.926;2024-02-04T10:15:38;22.98;;;12.15;;
52982;SDS011;48698;45.736;13.926;2024-02-04T10:20:42;23.73;;;10.90;;
52982;SDS011;48698;45.736;13.926;2024-02-04T10:25:45;24.92;;;10.00;;
52982;SDS011;48698;45.736;13.926;2024-02-04T10:30:48;26.17;;;11.85;;
52982;SDS011;48698;45.736;13.926;2024-02-04T10:35:52;24.30;;;11.20;;
52982;SDS011;48698;45.736;13.926;2024-02-04T10:40:55;21.08;;;10.93;;
52982;SDS011;48698;45.736;13.926;2024-02-04T10:46:13;31.55;;;12.45;;
52982;SDS011;48698;45.736;13.926;2024-02-04T10:51:22;20.60;;;11.27;;
52982;SDS011;48698;45.736;13.926;2024-02-04T10:56:42;32.33;;;14.43;;
52982;SDS011;48698;45.736;13.926;2024-02-04T11:01:49;34.72;;;15.15;;
52982;SDS011;48698;45.736;13.926;2024-02-04T11:06:53;35.60;;;16.17;;
52982;SDS011;48698;45.736;13.926;2024-02-04T11:11:57;35.65;;;17.83;;
52982;SDS011;48698;45.736;13.926;2024-02-04T11:27:50;43.25;;;21.48;;
52982;SDS011;48698;45.736;13.926;2024-02-04T11:32:53;39.80;;;20.23;;
52982;SDS011;48698;45.736;13.926;2024-02-04T11:37:56;36.10;;;19.33;;
52982;SDS011;48698;45.736;13.926;2024-02-04T11:43:07;32.22;;;18.50;;
52982;SDS011;48698;45.736;13.926;2024-02-04T11:48:14;31.10;;;18.27;;
52982;SDS011;48698;45.736;13.926;2024-02-04T11:53:19;36.97;;;17.23;;
52982;SDS011;48698;45.736;13.926;2024-02-04T11:58:22;30.10;;;18.27;;
52982;SDS011;48698;45.736;13.926;2024-02-04T12:03:32;34.72;;;18.33;;
52982;SDS011;48698;45.736;13.926;2024-02-04T12:08:38;41.88;;;20.90;;
52982;SDS011;48698;45.736;13.926;2024-02-04T12:13:41;36.90;;;18.58;;
52982;SDS011;48698;45.736;13.926;2024-02-04T12:18:48;48.22;;;21.98;;
52982;SDS011;48698;45.736;13.926;2024-02-04T12:23:52;40.65;;;22.13;;
52982;SDS011;48698;45.736;13.926;2024-02-04T12:28:55;31.27;;;19.15;;
52982;SDS011;48698;45.736;13.926;2024-02-04T12:33:58;47.25;;;22.92;;
52982;SDS011;48698;45.736;13.926;2024-02-04T12:39:04;39.92;;;24.05;;
52982;SDS011;48698;45.736;13.926;2024-02-04T12:44:09;42.00;;;22.98;;
52982;SDS011;48698;45.736;13.926;2024-02-04T12:49:17;36.92;;;22.35;;
52982;SDS011;48698;45.736;13.926;2024-02-04T12:54:22;35.90;;;22.17;;
52982;SDS011;48698;45.736;13.926;2024-02-04T12:59:32;36.53;;;21.90;;
52982;SDS011;48698;45.736;13.926;2024-02-04T13:04:37;43.25;;;23.63;;
52982;SDS011;48698;45.736;13.926;2024-02-04T13:14:44;40.63;;;23.25;;
52982;SDS011;48698;45.736;13.926;2024-02-04T13:19:47;40.50;;;23.67;;
52982;SDS011;48698;45.736;13.926;2024-02-04T13:24:51;33.67;;;22.17;;
52982;SDS011;48698;45.736;13.926;2024-02-04T13:29:55;36.72;;;23.45;;
52982;SDS011;48698;45.736;13.926;2024-02-04T13:34:58;40.40;;;23.63;;
52982;SDS011;48698;45.736;13.926;2024-02-04T13:40:14;43.22;;;22.25;;
52982;SDS011;48698;45.736;13.926;2024-02-04T13:45:18;40.28;;;23.60;;
52982;SDS011;48698;45.736;13.926;2024-02-04T13:50:22;38.22;;;22.95;;
52982;SDS011;48698;45.736;13.926;2024-02-04T13:55:25;42.25;;;24.88;;
52982;SDS011;48698;45.736;13.926;2024-02-04T14:00:28;42.45;;;25.15;;
52982;SDS011;48698;45.736;13.926;2024-02-04T14:05:31;49.33;;;26.30;;
52982;SDS011;48698;45.736;13.926;2024-02-04T14:10:34;47.63;;;27.85;;
52982;SDS011;48698;45.736;13.926;2024-02-04T14:15:37;48.10;;;29.05;;
52982;SDS011;48698;45.736;13.926;2024-02-04T14:20:40;51.63;;;29.00;;
52982;SDS011;48698;45.736;13.926;2024-02-04T14:25:43;47.72;;;28.30;;
52982;SDS011;48698;45.736;13.926;2024-02-04T14:30:48;51.45;;;28.67;;
52982;SDS011;48698;45.736;13.926;2024-02-04T14:35:51;42.35;;;27.73;;
52982;SDS011;48698;45.736;13.926;2024-02-04T14:40:53;51.63;;;30.63;;
52982;SDS011;48698;45.736;13.926;2024-02-04T14:45:56;50.92;;;30.17;;
52982;SDS011;48698;45.736;13.926;2024-02-04T14:51:00;49.90;;;31.80;;
52982;SDS011;48698;45.736;13.926;2024-02-04T14:56:03;57.75;;;34.05;;
52982;SDS011;48698;45.736;13.926;2024-02-04T15:01:06;57.03;;;34.95;;
52982;SDS011;48698;45.736;13.926;2024-02-04T15:06:09;58.38;;;32.85;;
52982;SDS011;48698;45.736;13.926;2024-02-04T15:11:12;60.35;;;35.03;;
52982;SDS011;48698;45.736;13.926;2024-02-04T15:16:15;64.30;;;40.45;;
52982;SDS011;48698;45.736;13.926;2024-02-04T15:21:18;73.90;;;41.20;;
52982;SDS011;48698;45.736;13.926;2024-02-04T15:26:21;76.40;;;42.92;;
52982;SDS011;48698;45.736;13.926;2024-02-04T15:31:27;76.82;;;46.55;;
52982;SDS011;48698;45.736;13.926;2024-02-04T15:36:30;76.38;;;45.58;;
52982;SDS011;48698;45.736;13.926;2024-02-04T15:41:35;78.72;;;46.20;;
52982;SDS011;48698;45.736;13.926;2024-02-04T15:46:38;72.28;;;45.20;;
52982;SDS011;48698;45.736;13.926;2024-02-04T15:51:44;76.85;;;45.17;;
52982;SDS011;48698;45.736;13.926;2024-02-04T15:56:54;85.70;;;50.40;;
52982;SDS011;48698;45.736;13.926;2024-02-04T16:01:58;73.95;;;43.30;;
52982;SDS011;48698;45.736;13.926;2024-02-04T16:07:02;69.55;;;41.08;;
52982;SDS011;48698;45.736;13.926;2024-02-04T16:12:05;75.97;;;45.22;;
52982;SDS011;48698;45.736;13.926;2024-02-04T16:17:13;71.85;;;43.30;;
52982;SDS011;48698;45.736;13.926;2024-02-04T16:22:19;143.90;;;75.20;;
52982;SDS011;48698;45.736;13.926;2024-02-04T16:27:22;66.30;;;40.03;;
52982;SDS011;48698;45.736;13.926;2024-02-04T16:32:26;80.63;;;47.22;;
52982;SDS011;48698;45.736;13.926;2024-02-04T16:37:28;78.72;;;47.25;;
52982;SDS011;48698;45.736;13.926;2024-02-04T16:42:31;80.97;;;45.53;;
52982;SDS011;48698;45.736;13.926;2024-02-04T16:47:37;75.43;;;45.42;;
52982;SDS011;48698;45.736;13.926;2024-02-04T16:52:41;99.97;;;56.53;;
52982;SDS011;48698;45.736;13.926;2024-02-04T16:57:47;97.70;;;57.78;;
52982;SDS011;48698;45.736;13.926;2024-02-04T17:02:50;80.20;;;44.03;;
52982;SDS011;48698;45.736;13.926;2024-02-04T17:07:52;74.15;;;43.80;;
52982;SDS011;48698;45.736;13.926;2024-02-04T17:12:56;77.28;;;41.00;;
52982;SDS011;48698;45.736;13.926;2024-02-04T17:18:02;80.70;;;47.50;;
52982;SDS011;48698;45.736;13.926;2024-02-04T17:23:07;76.60;;;46.63;;
52982;SDS011;48698;45.736;13.926;2024-02-04T17:28:12;76.57;;;43.58;;
52982;SDS011;48698;45.736;13.926;2024-02-04T17:33:16;166.60;;;102.22;;
52982;SDS011;48698;45.736;13.926;2024-02-04T17:38:19;82.25;;;46.13;;
52982;SDS011;48698;45.736;13.926;2024-02-04T17:43:22;74.05;;;43.78;;
52982;SDS011;48698;45.736;13.926;2024-02-04T17:48:25;76.03;;;44.40;;
52982;SDS011;48698;45.736;13.926;2024-02-04T17:53:28;92.45;;;49.88;;
52982;SDS011;48698;45.736;13.926;2024-02-04T17:58:31;95.35;;;58.33;;
52982;SDS011;48698;45.736;13.926;2024-02-04T18:03:34;111.55;;;56.05;;
52982;SDS011;48698;45.736;13.926;2024-02-04T18:08:38;77.38;;;44.13;;
52982;SDS011;48698;45.736;13.926;2024-02-04T18:13:41;507.50;;;289.83;;
52982;SDS011;48698;45.736;13.926;2024-02-04T18:18:44;112.75;;;66.43;;
52982;SDS011;48698;45.736;13.926;2024-02-04T18:23:48;87.97;;;53.92;;
52982;SDS011;48698;45.736;13.926;2024-02-04T18:28:52;81.93;;;46.77;;
52982;SDS011;48698;45.736;13.926;2024-02-04T18:34:01;91.88;;;50.42;;
52982;SDS011;48698;45.736;13.926;2024-02-04T18:39:04;90.70;;;52.63;;
52982;SDS011;48698;45.736;13.926;2024-02-04T18:44:09;86.22;;;50.00;;
52982;SDS011;48698;45.736;13.926;2024-02-04T18:49:13;90.80;;;50.17;;
52982;SDS011;48698;45.736;13.926;2024-02-04T18:54:16;90.10;;;52.50;;
52982;SDS011;48698;45.736;13.926;2024-02-04T18:59:19;89.43;;;52.10;;
52982;SDS011;48698;45.736;13.926;2024-02-04T19:04:21;87.50;;;51.25;;
52982;SDS011;48698;45.736;13.926;2024-02-04T19:09:29;97.80;;;54.13;;
52982;SDS011;48698;45.736;13.926;2024-02-04T19:14:32;85.50;;;46.42;;
52982;SDS011;48698;45.736;13.926;2024-02-04T19:19:35;80.57;;;45.92;;
52982;SDS011;48698;45.736;13.926;2024-02-04T19:24:39;82.37;;;48.47;;
52982;SDS011;48698;45.736;13.926;2024-02-04T19:29:42;93.95;;;50.88;;
52982;SDS011;48698;45.736;13.926;2024-02-04T19:34:46;82.73;;;49.27;;
52982;SDS011;48698;45.736;13.926;2024-02-04T19:39:49;82.53;;;47.10;;
52982;SDS011;48698;45.736;13.926;2024-02-04T19:44:52;90.88;;;51.67;;
52982;SDS011;48698;45.736;13.926;2024-02-04T19:49:55;146.68;;;75.22;;
52982;SDS011;48698;45.736;13.926;2024-02-04T19:55:01;97.47;;;55.83;;
52982;SDS011;48698;45.736;13.926;2024-02-04T20:00:06;112.13;;;54.72;;
52982;SDS011;48698;45.736;13.926;2024-02-04T20:05:10;80.93;;;47.55;;
52982;SDS011;48698;45.736;13.926;2024-02-04T20:10:13;91.07;;;53.55;;
52982;SDS011;48698;45.736;13.926;2024-02-04T20:15:17;88.97;;;49.75;;
52982;SDS011;48698;45.736;13.926;2024-02-04T20:20:26;92.22;;;48.65;;
52982;SDS011;48698;45.736;13.926;2024-02-04T20:25:29;82.38;;;47.75;;
52982;SDS011;48698;45.736;13.926;2024-02-04T20:30:32;91.10;;;48.65;;
52982;SDS011;48698;45.736;13.926;2024-02-04T20:35:35;86.10;;;47.20;;
52982;SDS011;48698;45.736;13.926;2024-02-04T20:40:37;88.55;;;47.83;;
52982;SDS011;48698;45.736;13.926;2024-02-04T20:45:41;89.88;;;47.30;;
52982;SDS011;48698;45.736;13.926;2024-02-04T20:50:46;92.53;;;48.13;;
52982;SDS011;48698;45.736;13.926;2024-02-04T20:55:49;85.07;;;50.03;;
52982;SDS011;48698;45.736;13.926;2024-02-04T21:00:52;96.15;;;53.75;;
52982;SDS011;48698;45.736;13.926;2024-02-04T21:05:55;84.90;;;47.50;;
52982;SDS011;48698;45.736;13.926;2024-02-04T21:10:57;97.90;;;51.80;;
52982;SDS011;48698;45.736;13.926;2024-02-04T21:16:01;95.82;;;51.17;;
52982;SDS011;48698;45.736;13.926;2024-02-04T21:21:04;80.85;;;45.22;;
52982;SDS011;48698;45.736;13.926;2024-02-04T21:26:07;91.78;;;51.38;;
52982;SDS011;48698;45.736;13.926;2024-02-04T21:31:11;97.93;;;52.90;;
52982;SDS011;48698;45.736;13.926;2024-02-04T21:36:15;93.43;;;49.38;;
52982;SDS011;48698;45.736;13.926;2024-02-04T21:41:18;89.63;;;50.05;;
52982;SDS011;48698;45.736;13.926;2024-02-04T21:46:22;110.65;;;57.88;;
52982;SDS011;48698;45.736;13.926;2024-02-04T21:51:26;105.47;;;56.97;;
52982;SDS011;48698;45.736;13.926;2024-02-04T21:56:29;96.00;;;53.92;;
52982;SDS011;48698;45.736;13.926;2024-02-04T22:01:32;101.05;;;55.28;;
52982;SDS011;48698;45.736;13.926;2024-02-04T22:06:35;89.40;;;50.85;;
52982;SDS011;48698;45.736;13.926;2024-02-04T22:11:37;112.07;;;57.08;;
52982;SDS011;48698;45.736;13.926;2024-02-04T22:16:40;101.50;;;55.22;;
52982;SDS011;48698;45.736;13.926;2024-02-04T22:21:45;111.60;;;61.50;;
52982;SDS011;48698;45.736;13.926;2024-02-04T22:26:48;78.15;;;46.70;;
52982;SDS011;48698;45.736;13.926;2024-02-04T22:31:50;88.18;;;48.45;;
52982;SDS011;48698;45.736;13.926;2024-02-04T22:36:53;102.18;;;56.10;;
52982;SDS011;48698;45.736;13.926;2024-02-04T22:41:56;88.78;;;53.78;;
52982;SDS011;48698;45.736;13.926;2024-02-04T22:46:59;99.90;;;54.70;;
52982;SDS011;48698;45.736;13.926;2024-02-04T22:52:02;100.22;;;50.92;;
52982;SDS011;48698;45.736;13.926;2024-02-04T22:57:05;102.97;;;55.10;;
52982;SDS011;48698;45.736;13.926;2024-02-04T23:02:09;111.33;;;57.70;;
52982;SDS011;48698;45.736;13.926;2024-02-04T23:07:13;107.95;;;59.55;;
52982;SDS011;48698;45.736;13.926;2024-02-04T23:12:15;97.75;;;55.28;;
52982;SDS011;48698;45.736;13.926;2024-02-04T23:17:20;104.82;;;58.40;;
52982;SDS011;48698;45.736;13.926;2024-02-04T23:22:23;103.03;;;56.13;;
52982;SDS011;48698;45.736;13.926;2024-02-04T23:27:26;96.60;;;55.90;;
52982;SDS011;48698;45.736;13.926;2024-02-04T23:32:29;105.15;;;55.42;;
52982;SDS011;48698;45.736;13.926;2024-02-04T23:37:32;94.55;;;55.05;;
52982;SDS011;48698;45.736;13.926;2024-02-04T23:42:36;104.60;;;55.72;;
52982;SDS011;48698;45.736;13.926;2024-02-04T23:47:40;93.18;;;51.72;;
52982;SDS011;48698;45.736;13.926;2024-02-04T23:52:43;93.00;;;54.60;;
52982;SDS011;48698;45.736;13.926;2024-02-04T23:57:46;98.47;;;53.10;;
